sensor_id;sensor_type;location;lat;lon;timestamp;P1;durP1;ratioP1;P2;durP2;ratioP2
5032;SDS011;2535;49.888;8.942;2023-05-10T00:02:13;2266.67;;;999.90;;
5032;SDS011;2535;49.888;8.942;2023-05-10T00:04:39;2266.67;;;999.90;;
5032;SDS011;2535;49.888;8.942;2023-05-10T00:07:05;2266.67;;;999.90;;
5032;SDS011;2535;49.888;8.942;2023-05-10T00:09:31;2266.67;;;999.90;;
5032;SDS011;2535;49.888;8.942;2023-05-10T00:11:56;2266.67;;;999.90;;
5032;SDS011;2535;49.888;8.942;2023-05-10T00:14:23;2266.67;;;999.90;;
5032;SDS011;2535;49.888;8.942;2023-05-10T00:16:49;2266.67;;;999.90;;
5032;SDS011;2535;49.888;8.942;2023-05-10T00:19:15;2266.67;;;999.90;;
5032;SDS011;2535;49.888;8.942;2023-05-10T00:21:41;2266.67;;;999.90;;
5032;SDS011;2535;49.888;8.942;2023-05-10T00:24:07;2266.67;;;999.90;;
5032;SDS011;2535;49.888;8.942;2023-05-10T00:26:33;2266.67;;;999.90;;
5032;SDS011;2535;49.888;8.942;2023-05-10T00:28:59;2266.67;;;999.90;;
5032;SDS011;2535;49.888;8.942;2023-05-10T00:31:25;2266.67;;;999.90;;
5032;SDS011;2535;49.888;8.942;2023-05-10T00:33:51;2266.67;;;999.90;;
5032;SDS011;2535;49.888;8.942;2023-05-10T00:36:17;2266.67;;;999.90;;
5032;SDS011;2535;49.888;8.942;2023-05-10T00:38:43;2266.67;;;999.90;;
5032;SDS011;2535;49.888;8.942;2023-05-10T00:41:09;2266.67;;;999.90;;
5032;SDS011;2535;49.888;8.942;2023-05-10T00:43:35;2266.67;;;999.90;;
5032;SDS011;2535;49.888;8.942;2023-05-10T00:46:01;2266.67;;;999.90;;
5032;SDS011;2535;49.888;8.942;2023-05-10T00:48:27;2266.67;;;999.90;;
5032;SDS011;2535;49.888;8.942;2023-05-10T00:50:54;2266.67;;;999.90;;
5032;SDS011;2535;49.888;8.942;2023-05-10T00:53:20;2266.67;;;999.90;;
5032;SDS011;2535;49.888;8.942;2023-05-10T00:55:46;2266.67;;;999.90;;
5032;SDS011;2535;49.888;8.942;2023-05-10T00:58:12;2266.67;;;999.90;;
5032;SDS011;2535;49.888;8.942;2023-05-10T01:00:38;2266.67;;;999.90;;
5032;SDS011;2535;49.888;8.942;2023-05-10T01:03:07;2266.67;;;999.90;;
5032;SDS011;2535;49.888;8.942;2023-05-10T01:05:33;2266.67;;;999.90;;
5032;SDS011;2535;49.888;8.942;2023-05-10T01:07:58;2266.67;;;999.90;;
5032;SDS011;2535;49.888;8.942;2023-05-10T01:10:24;2266.67;;;999.90;;
5032;SDS011;2535;49.888;8.942;2023-05-10T01:12:50;2266.67;;;999.90;;
5032;SDS011;2535;49.888;8.942;2023-05-10T01:15:16;2266.67;;;999.90;;
5032;SDS011;2535;49.888;8.942;2023-05-10T01:17:43;2266.67;;;999.90;;
5032;SDS011;2535;49.888;8.942;2023-05-10T01:20:09;2266.67;;;999.90;;
5032;SDS011;2535;49.888;8.942;2023-05-10T01:38:58;2266.67;;;999.90;;
5032;SDS011;2535;49.888;8.942;2023-05-10T01:41:03;2266.67;;;999.90;;
5032;SDS011;2535;49.888;8.942;2023-05-10T01:43:36;2266.67;;;999.90;;
5032;SDS011;2535;49.888;8.942;2023-05-10T01:46:07;2266.67;;;999.90;;
5032;SDS011;2535;49.888;8.942;2023-05-10T01:48:57;2266.67;;;999.90;;
5032;SDS011;2535;49.888;8.942;2023-05-10T01:51:23;2266.67;;;999.90;;
5032;SDS011;2535;49.888;8.942;2023-05-10T01:53:49;2266.67;;;999.90;;
5032;SDS011;2535;49.888;8.942;2023-05-10T01:56:17;2266.67;;;999.90;;
5032;SDS011;2535;49.888;8.942;2023-05-10T01:58:46;2266.67;;;999.90;;
5032;SDS011;2535;49.888;8.942;2023-05-10T02:01:14;2266.67;;;999.90;;
5032;SDS011;2535;49.888;8.942;2023-05-10T02:03:41;2266.67;;;999.90;;
5032;SDS011;2535;49.888;8.942;2023-05-10T02:06:08;2266.67;;;999.90;;
5032;SDS011;2535;49.888;8.942;2023-05-10T02:08:36;2266.67;;;999.90;;
5032;SDS011;2535;49.888;8.942;2023-05-10T02:11:02;2266.67;;;999.90;;
5032;SDS011;2535;49.888;8.942;2023-05-10T02:13:28;2266.67;;;999.90;;
5032;SDS011;2535;49.888;8.942;2023-05-10T02:15:55;2266.67;;;999.90;;
5032;SDS011;2535;49.888;8.942;2023-05-10T02:18:22;2266.67;;;999.90;;
5032;SDS011;2535;49.888;8.942;2023-05-10T02:20:49;2266.67;;;999.90;;
5032;SDS011;2535;49.888;8.942;2023-05-10T02:23:15;2266.67;;;999.90;;
5032;SDS011;2535;49.888;8.942;2023-05-10T02:25:43;2266.67;;;999.90;;
5032;SDS011;2535;49.888;8.942;2023-05-10T02:28:09;2266.67;;;999.90;;
5032;SDS011;2535;49.888;8.942;2023-05-10T02:30:36;2266.67;;;999.90;;
5032;SDS011;2535;49.888;8.942;2023-05-10T02:33:02;2266.67;;;999.90;;
5032;SDS011;2535;49.888;8.942;2023-05-10T02:35:29;2266.67;;;999.90;;
5032;SDS011;2535;49.888;8.942;2023-05-10T02:37:58;2266.67;;;999.90;;
5032;SDS011;2535;49.888;8.942;2023-05-10T02:40:24;2266.67;;;999.90;;
5032;SDS011;2535;49.888;8.942;2023-05-10T02:42:52;2266.67;;;999.90;;
5032;SDS011;2535;49.888;8.942;2023-05-10T02:45:19;2266.67;;;999.90;;
5032;SDS011;2535;49.888;8.942;2023-05-10T02:47:46;2266.67;;;999.90;;
5032;SDS011;2535;49.888;8.942;2023-05-10T02:50:12;2266.67;;;999.90;;
5032;SDS011;2535;49.888;8.942;2023-05-10T02:52:42;2266.67;;;999.90;;
5032;SDS011;2535;49.888;8.942;2023-05-10T02:55:11;2266.67;;;999.90;;
5032;SDS011;2535;49.888;8.942;2023-05-10T02:57:38;2266.67;;;999.90;;
5032;SDS011;2535;49.888;8.942;2023-05-10T03:00:06;2266.67;;;999.90;;
5032;SDS011;2535;49.888;8.942;2023-05-10T03:02:33;2266.67;;;999.90;;
5032;SDS011;2535;49.888;8.942;2023-05-10T03:04:59;2266.67;;;999.90;;
5032;SDS011;2535;49.888;8.942;2023-05-10T03:07:25;2266.67;;;999.90;;
5032;SDS011;2535;49.888;8.942;2023-05-10T03:09:51;2266.67;;;999.90;;
5032;SDS011;2535;49.888;8.942;2023-05-10T03:12:27;2266.67;;;999.90;;
5032;SDS011;2535;49.888;8.942;2023-05-10T03:15:00;2266.67;;;999.90;;
5032;SDS011;2535;49.888;8.942;2023-05-10T03:17:39;2266.67;;;999.90;;
5032;SDS011;2535;49.888;8.942;2023-05-10T03:20:08;2266.67;;;999.90;;
5032;SDS011;2535;49.888;8.942;2023-05-10T03:22:45;2266.67;;;999.90;;
5032;SDS011;2535;49.888;8.942;2023-05-10T03:25:12;2266.67;;;999.90;;
5032;SDS011;2535;49.888;8.942;2023-05-10T03:27:43;2266.67;;;999.90;;
5032;SDS011;2535;49.888;8.942;2023-05-10T03:30:10;2266.67;;;999.90;;
5032;SDS011;2535;49.888;8.942;2023-05-10T03:32:36;2266.67;;;999.90;;
5032;SDS011;2535;49.888;8.942;2023-05-10T03:35:06;2266.67;;;999.90;;
5032;SDS011;2535;49.888;8.942;2023-05-10T03:37:32;2266.67;;;999.90;;
5032;SDS011;2535;49.888;8.942;2023-05-10T03:39:58;2266.67;;;999.90;;
5032;SDS011;2535;49.888;8.942;2023-05-10T03:42:24;2266.67;;;999.90;;
5032;SDS011;2535;49.888;8.942;2023-05-10T03:44:50;2266.67;;;999.90;;
5032;SDS011;2535;49.888;8.942;2023-05-10T03:47:16;2266.67;;;999.90;;
5032;SDS011;2535;49.888;8.942;2023-05-10T03:49:42;2266.67;;;999.90;;
5032;SDS011;2535;49.888;8.942;2023-05-10T03:52:08;2266.67;;;999.90;;
5032;SDS011;2535;49.888;8.942;2023-05-10T03:54:34;2266.67;;;999.90;;
5032;SDS011;2535;49.888;8.942;2023-05-10T03:56:59;2266.67;;;999.90;;
5032;SDS011;2535;49.888;8.942;2023-05-10T03:59:26;2266.67;;;999.90;;
5032;SDS011;2535;49.888;8.942;2023-05-10T04:01:51;2266.67;;;999.90;;
5032;SDS011;2535;49.888;8.942;2023-05-10T04:04:17;2266.67;;;999.90;;
5032;SDS011;2535;49.888;8.942;2023-05-10T04:06:45;2266.67;;;999.90;;
5032;SDS011;2535;49.888;8.942;2023-05-10T04:09:11;2266.67;;;999.90;;
5032;SDS011;2535;49.888;8.942;2023-05-10T04:11:37;2266.67;;;999.90;;
5032;SDS011;2535;49.888;8.942;2023-05-10T04:14:03;2266.67;;;999.90;;
5032;SDS011;2535;49.888;8.942;2023-05-10T04:16:29;2266.67;;;999.90;;
5032;SDS011;2535;49.888;8.942;2023-05-10T04:18:55;2266.67;;;999.90;;
5032;SDS011;2535;49.888;8.942;2023-05-10T04:21:22;2266.67;;;999.90;;
5032;SDS011;2535;49.888;8.942;2023-05-10T04:23:48;2266.67;;;999.90;;
5032;SDS011;2535;49.888;8.942;2023-05-10T04:26:14;2266.67;;;999.90;;
5032;SDS011;2535;49.888;8.942;2023-05-10T04:28:40;2266.67;;;999.90;;
5032;SDS011;2535;49.888;8.942;2023-05-10T04:31:06;2266.67;;;999.90;;
5032;SDS011;2535;49.888;8.942;2023-05-10T04:33:32;2266.67;;;999.90;;
5032;SDS011;2535;49.888;8.942;2023-05-10T04:35:59;2266.67;;;999.90;;
5032;SDS011;2535;49.888;8.942;2023-05-10T04:38:25;2266.67;;;999.90;;
5032;SDS011;2535;49.888;8.942;2023-05-10T04:40:51;2266.67;;;999.90;;
5032;SDS011;2535;49.888;8.942;2023-05-10T04:43:17;2266.67;;;999.90;;
5032;SDS011;2535;49.888;8.942;2023-05-10T04:45:43;2266.67;;;999.90;;
5032;SDS011;2535;49.888;8.942;2023-05-10T04:48:10;2266.67;;;999.90;;
5032;SDS011;2535;49.888;8.942;2023-05-10T04:50:36;2266.67;;;999.90;;
5032;SDS011;2535;49.888;8.942;2023-05-10T04:53:02;2266.67;;;999.90;;
5032;SDS011;2535;49.888;8.942;2023-05-10T04:55:28;2266.67;;;999.90;;
5032;SDS011;2535;49.888;8.942;2023-05-10T04:57:54;2266.67;;;999.90;;
5032;SDS011;2535;49.888;8.942;2023-05-10T05:00:22;2266.67;;;999.90;;
5032;SDS011;2535;49.888;8.942;2023-05-10T05:02:48;2266.67;;;999.90;;
5032;SDS011;2535;49.888;8.942;2023-05-10T05:05:14;2266.67;;;999.90;;
5032;SDS011;2535;49.888;8.942;2023-05-10T05:07:39;2266.67;;;999.90;;
5032;SDS011;2535;49.888;8.942;2023-05-10T05:10:06;2266.67;;;999.90;;
5032;SDS011;2535;49.888;8.942;2023-05-10T05:12:32;2266.67;;;999.90;;
5032;SDS011;2535;49.888;8.942;2023-05-10T05:14:58;2266.67;;;999.90;;
5032;SDS011;2535;49.888;8.942;2023-05-10T05:17:24;2266.67;;;999.90;;
5032;SDS011;2535;49.888;8.942;2023-05-10T05:19:50;2266.67;;;999.90;;
5032;SDS011;2535;49.888;8.942;2023-05-10T05:22:16;2266.67;;;999.90;;
5032;SDS011;2535;49.888;8.942;2023-05-10T05:24:42;2266.67;;;999.90;;
5032;SDS011;2535;49.888;8.942;2023-05-10T05:27:09;2266.67;;;999.90;;
5032;SDS011;2535;49.888;8.942;2023-05-10T05:29:35;2266.67;;;999.90;;
5032;SDS011;2535;49.888;8.942;2023-05-10T05:32:01;2266.67;;;999.90;;
5032;SDS011;2535;49.888;8.942;2023-05-10T05:34:28;2266.67;;;999.90;;
5032;SDS011;2535;49.888;8.942;2023-05-10T05:36:53;2266.67;;;999.90;;
5032;SDS011;2535;49.888;8.942;2023-05-10T05:39:20;2266.67;;;999.90;;
5032;SDS011;2535;49.888;8.942;2023-05-10T05:41:46;2266.67;;;999.90;;
5032;SDS011;2535;49.888;8.942;2023-05-10T05:44:12;2266.67;;;999.90;;
5032;SDS011;2535;49.888;8.942;2023-05-10T05:46:38;2266.67;;;999.90;;
5032;SDS011;2535;49.888;8.942;2023-05-10T05:49:04;2266.67;;;999.90;;
5032;SDS011;2535;49.888;8.942;2023-05-10T05:51:30;2266.67;;;999.90;;
5032;SDS011;2535;49.888;8.942;2023-05-10T05:53:56;2266.67;;;999.90;;
5032;SDS011;2535;49.888;8.942;2023-05-10T05:56:22;2266.67;;;999.90;;
5032;SDS011;2535;49.888;8.942;2023-05-10T05:58:52;2266.67;;;999.90;;
5032;SDS011;2535;49.888;8.942;2023-05-10T06:01:18;2266.67;;;999.90;;
5032;SDS011;2535;49.888;8.942;2023-05-10T06:03:44;2266.67;;;999.90;;
5032;SDS011;2535;49.888;8.942;2023-05-10T06:06:10;2266.67;;;999.90;;
5032;SDS011;2535;49.888;8.942;2023-05-10T06:08:36;2266.67;;;999.90;;
5032;SDS011;2535;49.888;8.942;2023-05-10T06:11:02;2266.67;;;999.90;;
5032;SDS011;2535;49.888;8.942;2023-05-10T06:13:29;2266.67;;;999.90;;
5032;SDS011;2535;49.888;8.942;2023-05-10T06:15:57;2266.67;;;999.90;;
5032;SDS011;2535;49.888;8.942;2023-05-10T06:18:23;2266.67;;;999.90;;
5032;SDS011;2535;49.888;8.942;2023-05-10T06:20:49;2266.67;;;999.90;;
5032;SDS011;2535;49.888;8.942;2023-05-10T06:23:16;2266.67;;;999.90;;
5032;SDS011;2535;49.888;8.942;2023-05-10T06:25:42;2266.67;;;999.90;;
5032;SDS011;2535;49.888;8.942;2023-05-10T06:28:08;2266.67;;;999.90;;
5032;SDS011;2535;49.888;8.942;2023-05-10T06:30:35;2266.67;;;999.90;;
5032;SDS011;2535;49.888;8.942;2023-05-10T06:33:01;2266.67;;;999.90;;
5032;SDS011;2535;49.888;8.942;2023-05-10T06:35:27;2266.67;;;999.90;;
5032;SDS011;2535;49.888;8.942;2023-05-10T06:37:53;2266.67;;;999.90;;
5032;SDS011;2535;49.888;8.942;2023-05-10T06:40:19;2266.67;;;999.90;;
5032;SDS011;2535;49.888;8.942;2023-05-10T06:42:46;2266.67;;;999.90;;
5032;SDS011;2535;49.888;8.942;2023-05-10T06:45:12;2266.67;;;999.90;;
5032;SDS011;2535;49.888;8.942;2023-05-10T06:47:38;2266.67;;;999.90;;
5032;SDS011;2535;49.888;8.942;2023-05-10T06:50:04;2266.67;;;999.90;;
5032;SDS011;2535;49.888;8.942;2023-05-10T06:52:30;2266.67;;;999.90;;
5032;SDS011;2535;49.888;8.942;2023-05-10T06:54:56;2266.67;;;999.90;;
5032;SDS011;2535;49.888;8.942;2023-05-10T06:57:22;2266.67;;;999.90;;
5032;SDS011;2535;49.888;8.942;2023-05-10T06:59:49;2266.67;;;999.90;;
5032;SDS011;2535;49.888;8.942;2023-05-10T07:02:16;2266.67;;;999.90;;
5032;SDS011;2535;49.888;8.942;2023-05-10T07:04:42;2266.67;;;999.90;;
5032;SDS011;2535;49.888;8.942;2023-05-10T07:07:08;2266.67;;;999.90;;
5032;SDS011;2535;49.888;8.942;2023-05-10T07:09:34;2266.67;;;999.90;;
5032;SDS011;2535;49.888;8.942;2023-05-10T07:12:00;2266.67;;;999.90;;
5032;SDS011;2535;49.888;8.942;2023-05-10T07:14:26;2266.67;;;999.90;;
5032;SDS011;2535;49.888;8.942;2023-05-10T07:16:52;2266.67;;;999.90;;
5032;SDS011;2535;49.888;8.942;2023-05-10T07:19:18;2266.67;;;999.90;;
5032;SDS011;2535;49.888;8.942;2023-05-10T07:21:44;2266.67;;;999.90;;
5032;SDS011;2535;49.888;8.942;2023-05-10T07:24:10;2266.67;;;999.90;;
5032;SDS011;2535;49.888;8.942;2023-05-10T07:26:36;2266.67;;;999.90;;
5032;SDS011;2535;49.888;8.942;2023-05-10T07:29:02;2266.67;;;999.90;;
5032;SDS011;2535;49.888;8.942;2023-05-10T07:31:28;2266.67;;;999.90;;
5032;SDS011;2535;49.888;8.942;2023-05-10T07:33:54;2266.67;;;999.90;;
5032;SDS011;2535;49.888;8.942;2023-05-10T07:36:20;2266.67;;;999.90;;
5032;SDS011;2535;49.888;8.942;2023-05-10T07:38:46;2266.67;;;999.90;;
5032;SDS011;2535;49.888;8.942;2023-05-10T07:41:12;2266.67;;;999.90;;
5032;SDS011;2535;49.888;8.942;2023-05-10T07:43:38;2266.67;;;999.90;;
5032;SDS011;2535;49.888;8.942;2023-05-10T07:46:04;2266.67;;;999.90;;
5032;SDS011;2535;49.888;8.942;2023-05-10T07:48:30;2266.67;;;999.90;;
5032;SDS011;2535;49.888;8.942;2023-05-10T07:50:56;2266.67;;;999.90;;
5032;SDS011;2535;49.888;8.942;2023-05-10T07:53:22;2266.67;;;999.90;;
5032;SDS011;2535;49.888;8.942;2023-05-10T07:55:51;2266.67;;;999.90;;
5032;SDS011;2535;49.888;8.942;2023-05-10T07:58:19;2266.67;;;999.90;;
5032;SDS011;2535;49.888;8.942;2023-05-10T08:00:45;2266.67;;;999.90;;
5032;SDS011;2535;49.888;8.942;2023-05-10T08:03:11;2266.67;;;999.90;;
5032;SDS011;2535;49.888;8.942;2023-05-10T08:05:37;2266.67;;;999.90;;
5032;SDS011;2535;49.888;8.942;2023-05-10T08:08:03;2266.67;;;999.90;;
5032;SDS011;2535;49.888;8.942;2023-05-10T08:10:29;2266.67;;;999.90;;
5032;SDS011;2535;49.888;8.942;2023-05-10T08:12:55;2266.67;;;999.90;;
5032;SDS011;2535;49.888;8.942;2023-05-10T08:15:21;2266.67;;;999.90;;
5032;SDS011;2535;49.888;8.942;2023-05-10T08:17:47;2266.67;;;999.90;;
5032;SDS011;2535;49.888;8.942;2023-05-10T08:20:13;2266.67;;;999.90;;
5032;SDS011;2535;49.888;8.942;2023-05-10T08:22:41;2266.67;;;999.90;;
5032;SDS011;2535;49.888;8.942;2023-05-10T08:25:07;2266.67;;;999.90;;
5032;SDS011;2535;49.888;8.942;2023-05-10T08:27:33;2266.67;;;999.90;;
5032;SDS011;2535;49.888;8.942;2023-05-10T08:29:59;2266.67;;;999.90;;
5032;SDS011;2535;49.888;8.942;2023-05-10T08:32:25;2266.67;;;999.90;;
5032;SDS011;2535;49.888;8.942;2023-05-10T08:34:51;2266.67;;;999.90;;
5032;SDS011;2535;49.888;8.942;2023-05-10T08:37:17;2266.67;;;999.90;;
5032;SDS011;2535;49.888;8.942;2023-05-10T08:39:43;2266.67;;;999.90;;
5032;SDS011;2535;49.888;8.942;2023-05-10T08:42:10;2266.67;;;999.90;;
5032;SDS011;2535;49.888;8.942;2023-05-10T08:44:36;2266.67;;;999.90;;
5032;SDS011;2535;49.888;8.942;2023-05-10T08:47:04;2266.67;;;999.90;;
5032;SDS011;2535;49.888;8.942;2023-05-10T08:49:31;2266.67;;;999.90;;
5032;SDS011;2535;49.888;8.942;2023-05-10T08:51:57;2266.67;;;999.90;;
5032;SDS011;2535;49.888;8.942;2023-05-10T08:54:25;2266.67;;;999.90;;
5032;SDS011;2535;49.888;8.942;2023-05-10T08:56:51;2266.67;;;999.90;;
5032;SDS011;2535;49.888;8.942;2023-05-10T08:59:18;2266.67;;;999.90;;
5032;SDS011;2535;49.888;8.942;2023-05-10T09:01:44;2266.67;;;999.90;;
5032;SDS011;2535;49.888;8.942;2023-05-10T09:04:10;2266.67;;;999.90;;
5032;SDS011;2535;49.888;8.942;2023-05-10T09:06:37;2266.67;;;999.90;;
5032;SDS011;2535;49.888;8.942;2023-05-10T09:09:03;2266.67;;;999.90;;
5032;SDS011;2535;49.888;8.942;2023-05-10T09:11:29;2266.67;;;999.90;;
5032;SDS011;2535;49.888;8.942;2023-05-10T09:13:55;2266.67;;;999.90;;
5032;SDS011;2535;49.888;8.942;2023-05-10T09:16:21;2266.67;;;999.90;;
5032;SDS011;2535;49.888;8.942;2023-05-10T09:18:48;2266.67;;;999.90;;
5032;SDS011;2535;49.888;8.942;2023-05-10T09:21:14;2266.67;;;999.90;;
5032;SDS011;2535;49.888;8.942;2023-05-10T09:23:44;2266.67;;;999.90;;
5032;SDS011;2535;49.888;8.942;2023-05-10T09:26:11;2266.67;;;999.90;;
5032;SDS011;2535;49.888;8.942;2023-05-10T09:28:53;2266.67;;;999.90;;
5032;SDS011;2535;49.888;8.942;2023-05-10T09:31:19;2266.67;;;999.90;;
5032;SDS011;2535;49.888;8.942;2023-05-10T09:33:48;2266.67;;;999.90;;
5032;SDS011;2535;49.888;8.942;2023-05-10T09:36:14;2266.67;;;999.90;;
5032;SDS011;2535;49.888;8.942;2023-05-10T09:38:51;2266.67;;;999.90;;
5032;SDS011;2535;49.888;8.942;2023-05-10T09:41:23;2266.67;;;999.90;;
5032;SDS011;2535;49.888;8.942;2023-05-10T09:43:50;2266.67;;;999.90;;
5032;SDS011;2535;49.888;8.942;2023-05-10T09:46:16;2266.67;;;999.90;;
5032;SDS011;2535;49.888;8.942;2023-05-10T09:48:43;2266.67;;;999.90;;
5032;SDS011;2535;49.888;8.942;2023-05-10T09:51:09;2266.67;;;999.90;;
5032;SDS011;2535;49.888;8.942;2023-05-10T09:53:35;2266.67;;;999.90;;
5032;SDS011;2535;49.888;8.942;2023-05-10T09:56:01;2266.67;;;999.90;;
5032;SDS011;2535;49.888;8.942;2023-05-10T09:58:27;2266.67;;;999.90;;
5032;SDS011;2535;49.888;8.942;2023-05-10T10:00:53;2266.67;;;999.90;;
5032;SDS011;2535;49.888;8.942;2023-05-10T10:03:20;2266.67;;;999.90;;
5032;SDS011;2535;49.888;8.942;2023-05-10T10:05:47;2266.67;;;999.90;;
5032;SDS011;2535;49.888;8.942;2023-05-10T10:08:14;2266.67;;;999.90;;
5032;SDS011;2535;49.888;8.942;2023-05-10T10:10:40;2266.67;;;999.90;;
5032;SDS011;2535;49.888;8.942;2023-05-10T10:13:07;2266.67;;;999.90;;
5032;SDS011;2535;49.888;8.942;2023-05-10T10:15:34;2266.67;;;999.90;;
5032;SDS011;2535;49.888;8.942;2023-05-10T10:18:00;2266.67;;;999.90;;
5032;SDS011;2535;49.888;8.942;2023-05-10T10:20:26;2266.67;;;999.90;;
5032;SDS011;2535;49.888;8.942;2023-05-10T10:22:52;2266.67;;;999.90;;
5032;SDS011;2535;49.888;8.942;2023-05-10T10:25:19;2266.67;;;999.90;;
5032;SDS011;2535;49.888;8.942;2023-05-10T10:30:26;2266.67;;;999.90;;
5032;SDS011;2535;49.888;8.942;2023-05-10T10:33:01;2266.67;;;999.90;;
5032;SDS011;2535;49.888;8.942;2023-05-10T10:35:32;2266.67;;;999.90;;
5032;SDS011;2535;49.888;8.942;2023-05-10T10:37:58;2266.67;;;999.90;;
5032;SDS011;2535;49.888;8.942;2023-05-10T10:40:32;2266.67;;;999.90;;
5032;SDS011;2535;49.888;8.942;2023-05-10T10:42:58;2266.67;;;999.90;;
5032;SDS011;2535;49.888;8.942;2023-05-10T10:45:44;2266.67;;;999.90;;
5032;SDS011;2535;49.888;8.942;2023-05-10T10:48:19;2266.67;;;999.90;;
5032;SDS011;2535;49.888;8.942;2023-05-10T10:50:46;2266.67;;;999.90;;
5032;SDS011;2535;49.888;8.942;2023-05-10T10:53:11;2266.67;;;999.90;;
5032;SDS011;2535;49.888;8.942;2023-05-10T10:55:47;2266.67;;;999.90;;
5032;SDS011;2535;49.888;8.942;2023-05-10T10:58:29;2266.67;;;999.90;;
5032;SDS011;2535;49.888;8.942;2023-05-10T11:01:10;2266.67;;;999.90;;
5032;SDS011;2535;49.888;8.942;2023-05-10T11:03:36;2266.67;;;999.90;;
5032;SDS011;2535;49.888;8.942;2023-05-10T11:06:02;2266.67;;;999.90;;
5032;SDS011;2535;49.888;8.942;2023-05-10T11:08:29;2266.67;;;999.90;;
5032;SDS011;2535;49.888;8.942;2023-05-10T11:13:43;2266.67;;;999.90;;
5032;SDS011;2535;49.888;8.942;2023-05-10T11:16:13;2266.67;;;999.90;;
5032;SDS011;2535;49.888;8.942;2023-05-10T11:18:39;2266.67;;;999.90;;
5032;SDS011;2535;49.888;8.942;2023-05-10T11:21:06;2266.67;;;999.90;;
5032;SDS011;2535;49.888;8.942;2023-05-10T11:26:13;2266.67;;;999.90;;
5032;SDS011;2535;49.888;8.942;2023-05-10T11:28:48;2266.67;;;999.90;;
5032;SDS011;2535;49.888;8.942;2023-05-10T11:31:15;2266.67;;;999.90;;
5032;SDS011;2535;49.888;8.942;2023-05-10T11:33:45;2266.67;;;999.90;;
5032;SDS011;2535;49.888;8.942;2023-05-10T11:36:14;2266.67;;;999.90;;
5032;SDS011;2535;49.888;8.942;2023-05-10T11:38:41;2266.67;;;999.90;;
5032;SDS011;2535;49.888;8.942;2023-05-10T11:41:10;2266.67;;;999.90;;
5032;SDS011;2535;49.888;8.942;2023-05-10T11:43:37;2266.67;;;999.90;;
5032;SDS011;2535;49.888;8.942;2023-05-10T11:46:04;2266.67;;;999.90;;
5032;SDS011;2535;49.888;8.942;2023-05-10T11:48:31;2266.67;;;999.90;;
5032;SDS011;2535;49.888;8.942;2023-05-10T11:50:57;2266.67;;;999.90;;
5032;SDS011;2535;49.888;8.942;2023-05-10T11:53:25;2266.67;;;999.90;;
5032;SDS011;2535;49.888;8.942;2023-05-10T11:55:52;2266.67;;;999.90;;
5032;SDS011;2535;49.888;8.942;2023-05-10T11:58:18;2266.67;;;999.90;;
5032;SDS011;2535;49.888;8.942;2023-05-10T12:00:46;2266.67;;;999.90;;
5032;SDS011;2535;49.888;8.942;2023-05-10T12:03:12;2266.67;;;999.90;;
5032;SDS011;2535;49.888;8.942;2023-05-10T12:05:38;2266.67;;;999.90;;
5032;SDS011;2535;49.888;8.942;2023-05-10T12:08:12;2266.67;;;999.90;;
5032;SDS011;2535;49.888;8.942;2023-05-10T12:10:38;2266.67;;;999.90;;
5032;SDS011;2535;49.888;8.942;2023-05-10T12:13:04;2266.67;;;999.90;;
5032;SDS011;2535;49.888;8.942;2023-05-10T12:15:31;2266.67;;;999.90;;
5032;SDS011;2535;49.888;8.942;2023-05-10T12:17:57;2266.67;;;999.90;;
5032;SDS011;2535;49.888;8.942;2023-05-10T12:20:26;2266.67;;;999.90;;
5032;SDS011;2535;49.888;8.942;2023-05-10T12:22:54;2266.67;;;999.90;;
5032;SDS011;2535;49.888;8.942;2023-05-10T12:25:22;2266.67;;;999.90;;
5032;SDS011;2535;49.888;8.942;2023-05-10T12:27:51;2266.67;;;999.90;;
5032;SDS011;2535;49.888;8.942;2023-05-10T12:30:27;2266.67;;;999.90;;
5032;SDS011;2535;49.888;8.942;2023-05-10T12:32:53;2266.67;;;999.90;;
5032;SDS011;2535;49.888;8.942;2023-05-10T12:35:19;2266.67;;;999.90;;
5032;SDS011;2535;49.888;8.942;2023-05-10T12:37:46;2266.67;;;999.90;;
5032;SDS011;2535;49.888;8.942;2023-05-10T12:40:12;2266.67;;;999.90;;
5032;SDS011;2535;49.888;8.942;2023-05-10T12:42:38;2266.67;;;999.90;;
5032;SDS011;2535;49.888;8.942;2023-05-10T12:45:05;2266.67;;;999.90;;
5032;SDS011;2535;49.888;8.942;2023-05-10T12:47:31;2266.67;;;999.90;;
5032;SDS011;2535;49.888;8.942;2023-05-10T12:49:58;2266.67;;;999.90;;
5032;SDS011;2535;49.888;8.942;2023-05-10T12:52:24;2266.67;;;999.90;;
5032;SDS011;2535;49.888;8.942;2023-05-10T12:54:51;2266.67;;;999.90;;
5032;SDS011;2535;49.888;8.942;2023-05-10T12:57:17;2266.67;;;999.90;;
5032;SDS011;2535;49.888;8.942;2023-05-10T12:59:43;995.40;;;867.30;;
5032;SDS011;2535;49.888;8.942;2023-05-10T13:02:09;1162.63;;;999.90;;
5032;SDS011;2535;49.888;8.942;2023-05-10T13:04:35;1139.67;;;999.90;;
5032;SDS011;2535;49.888;8.942;2023-05-10T13:07:04;1117.97;;;999.90;;
5032;SDS011;2535;49.888;8.942;2023-05-10T13:09:30;1271.70;;;999.90;;
5032;SDS011;2535;49.888;8.942;2023-05-10T13:11:56;1180.73;;;999.90;;
5032;SDS011;2535;49.888;8.942;2023-05-10T13:14:22;946.07;;;871.67;;
5032;SDS011;2535;49.888;8.942;2023-05-10T13:16:48;586.70;;;539.10;;
5032;SDS011;2535;49.888;8.942;2023-05-10T13:19:14;611.93;;;563.27;;
5032;SDS011;2535;49.888;8.942;2023-05-10T13:21:40;217.87;;;184.53;;
5032;SDS011;2535;49.888;8.942;2023-05-10T13:24:06;521.93;;;479.53;;
5032;SDS011;2535;49.888;8.942;2023-05-10T13:26:32;361.40;;;329.43;;
5032;SDS011;2535;49.888;8.942;2023-05-10T13:28:58;626.80;;;577.40;;
5032;SDS011;2535;49.888;8.942;2023-05-10T13:31:24;218.90;;;188.77;;
5032;SDS011;2535;49.888;8.942;2023-05-10T13:33:50;188.87;;;130.70;;
5032;SDS011;2535;49.888;8.942;2023-05-10T13:36:16;277.97;;;250.17;;
5032;SDS011;2535;49.888;8.942;2023-05-10T13:38:42;147.50;;;73.20;;
5032;SDS011;2535;49.888;8.942;2023-05-10T13:41:08;137.73;;;58.43;;
5032;SDS011;2535;49.888;8.942;2023-05-10T13:43:34;125.37;;;35.87;;
5032;SDS011;2535;49.888;8.942;2023-05-10T13:46:00;125.00;;;24.33;;
5032;SDS011;2535;49.888;8.942;2023-05-10T13:48:27;107.77;;;10.30;;
5032;SDS011;2535;49.888;8.942;2023-05-10T13:50:53;109.00;;;7.30;;
5032;SDS011;2535;49.888;8.942;2023-05-10T13:53:19;110.27;;;10.73;;
5032;SDS011;2535;49.888;8.942;2023-05-10T13:55:46;117.10;;;19.30;;
5032;SDS011;2535;49.888;8.942;2023-05-10T13:58:12;111.57;;;9.67;;
5032;SDS011;2535;49.888;8.942;2023-05-10T14:00:38;108.67;;;7.60;;
5032;SDS011;2535;49.888;8.942;2023-05-10T14:03:04;114.10;;;14.47;;
5032;SDS011;2535;49.888;8.942;2023-05-10T14:05:31;116.90;;;18.23;;
5032;SDS011;2535;49.888;8.942;2023-05-10T14:07:57;127.67;;;35.93;;
5032;SDS011;2535;49.888;8.942;2023-05-10T14:10:23;124.97;;;31.27;;
5032;SDS011;2535;49.888;8.942;2023-05-10T14:12:49;137.27;;;51.07;;
5032;SDS011;2535;49.888;8.942;2023-05-10T14:15:15;142.47;;;56.27;;
5032;SDS011;2535;49.888;8.942;2023-05-10T14:17:41;144.77;;;58.90;;
5032;SDS011;2535;49.888;8.942;2023-05-10T14:20:07;143.10;;;57.10;;
5032;SDS011;2535;49.888;8.942;2023-05-10T14:22:33;146.60;;;62.37;;
5032;SDS011;2535;49.888;8.942;2023-05-10T14:24:59;150.47;;;67.63;;
5032;SDS011;2535;49.888;8.942;2023-05-10T14:27:25;143.60;;;54.63;;
5032;SDS011;2535;49.888;8.942;2023-05-10T14:29:51;168.83;;;102.97;;
5032;SDS011;2535;49.888;8.942;2023-05-10T14:32:18;165.23;;;94.70;;
5032;SDS011;2535;49.888;8.942;2023-05-10T14:34:44;161.97;;;92.03;;